<?xml version="1.0" encoding="UTF-8" standalone="no" ?>
<gpx xmlns="http://www.topografix.com/GPX/1/1" xmlns:xsi="http://www.w3.org/2001/XMLSchema-instance" xsi:schemaLocation="http://www.topografix.com/GPX/1/1 http://www.topografix.com/GPX/1/1/gpx.xsd" version="1.1" creator="VisuGPX - https://www.visugpx.com">
  <metadata>
    <name>Le chemin de Batistou</name>
    <desc><![CDATA[Sentier d'interprétation et éléments du patrimoine.]]></desc>
  </metadata>
  <wpt lat="44.42123" lon="4.09154">
    <ele>211.69</ele>
    <name><![CDATA[0000063]]></name>
    <desc><![CDATA[]]></desc>
    <type><![CDATA[Point de départ]]></type>
  </wpt>
  <wpt lat="44.42127" lon="4.0916">
    <ele>213.38</ele>
    <name><![CDATA[0000064]]></name>
    <desc><![CDATA[<br /><h3>Nom: Segment 1</h3><br /><p>Temps de départ: 04/08/2014 13:57</p><p>Temps d'arrivée: 04/08/2014 16:45</p><p>Distance: 4,5 km (02:48)</p><p>Temps déplacement: 01:22</p><p>Vitesse moyenne: 1,6 km/h</p><p>Vitesse moyenne: 3,3 km/h</p><p>Vitess Max.: 7,1 km/h</p><p>Altitude minimale: 202 m</p><p>Altitude maximale: 480 m</p><p>Vitesse d'élévation: 202,9 m/h</p><p>Vitesse de descente: -242,9 m/h</p><p>Gain Altitude: 309 m</p><p>Perte Altitude: -303 m</p><p>Temps d'élévation: 01:31</p><p>Temps de descente: 01:14</p>]]></desc>
    <type><![CDATA[Point d'arrivée]]></type>
  </wpt>
  <trk>
    <name><![CDATA[batistou]]></name>
    <desc><![CDATA[<h1>OruxMaps</h1><br /><hr align="center" width="480" style="height: 2px; width: 517px"/><h2>Nom: batistou</h2><br /><p>Temps de départ: 04/08/2014 13:57</p><p>Temps d'arrivée: 04/08/2014 16:45</p><p>Distance: 4,5 km (02:48)</p><p>Temps déplacement: 01:22</p><p>Vitesse moyenne: 1,6 km/h</p><p>Vitesse moyenne: 3,3 km/h</p><p>Vitess Max.: 7,1 km/h</p><p>Altitude minimale: 202 m</p><p>Altitude maximale: 480 m</p><p>Vitesse d'élévation: 202,9 m/h</p><p>Vitesse de descente: -242,9 m/h</p><p>Gain Altitude: 309 m</p><p>Perte Altitude: -303 m</p><p>Temps d'élévation: 01:31</p><p>Temps de descente: 01:14</p><hr align="center" width="480" style="height: 2px; width: 517px"/>]]></desc>
    <trkseg>
      <trkpt lat="44.42123" lon="4.09154">
        <ele>211.69</ele>
        <time>2014-04-08T11:57:08Z</time>
      </trkpt>
      <trkpt lat="44.42141" lon="4.09153">
        <ele>203.47</ele>
        <time>2014-04-08T12:00:39Z</time>
      </trkpt>
      <trkpt lat="44.4216" lon="4.09145">
        <ele>202.99</ele>
        <time>2014-04-08T12:00:58Z</time>
      </trkpt>
      <trkpt lat="44.42178" lon="4.09138">
        <ele>209.98</ele>
        <time>2014-04-08T12:01:26Z</time>
      </trkpt>
      <trkpt lat="44.42189" lon="4.09117">
        <ele>208.72</ele>
        <time>2014-04-08T12:01:45Z</time>
      </trkpt>
      <trkpt lat="44.42201" lon="4.09097">
        <ele>208.32</ele>
        <time>2014-04-08T12:02:03Z</time>
      </trkpt>
      <trkpt lat="44.42212" lon="4.09076">
        <ele>208.23</ele>
        <time>2014-04-08T12:02:21Z</time>
      </trkpt>
      <trkpt lat="44.42219" lon="4.09051">
        <ele>210.69</ele>
        <time>2014-04-08T12:02:38Z</time>
      </trkpt>
      <trkpt lat="44.42223" lon="4.09026">
        <ele>206.61</ele>
        <time>2014-04-08T12:02:57Z</time>
      </trkpt>
      <trkpt lat="44.42229" lon="4.09">
        <ele>218.79</ele>
        <time>2014-04-08T12:03:35Z</time>
      </trkpt>
      <trkpt lat="44.42235" lon="4.08976">
        <ele>216.21</ele>
        <time>2014-04-08T12:04:00Z</time>
      </trkpt>
      <trkpt lat="44.42253" lon="4.08972">
        <ele>217.31</ele>
        <time>2014-04-08T12:04:41Z</time>
      </trkpt>
      <trkpt lat="44.4227" lon="4.08959">
        <ele>213.97</ele>
        <time>2014-04-08T12:05:04Z</time>
      </trkpt>
      <trkpt lat="44.42287" lon="4.08946">
        <ele>209.89</ele>
        <time>2014-04-08T12:05:21Z</time>
      </trkpt>
      <trkpt lat="44.42305" lon="4.0894">
        <ele>210.15</ele>
        <time>2014-04-08T12:05:37Z</time>
      </trkpt>
      <trkpt lat="44.42322" lon="4.0893">
        <ele>215.06</ele>
        <time>2014-04-08T12:08:00Z</time>
      </trkpt>
      <trkpt lat="44.42333" lon="4.08909">
        <ele>214.29</ele>
        <time>2014-04-08T12:08:18Z</time>
      </trkpt>
      <trkpt lat="44.4235" lon="4.08901">
        <ele>214.61</ele>
        <time>2014-04-08T12:08:46Z</time>
      </trkpt>
      <trkpt lat="44.42368" lon="4.08894">
        <ele>217.07</ele>
        <time>2014-04-08T12:09:42Z</time>
      </trkpt>
      <trkpt lat="44.42382" lon="4.08878">
        <ele>220.39</ele>
        <time>2014-04-08T12:09:56Z</time>
      </trkpt>
      <trkpt lat="44.42397" lon="4.08864">
        <ele>222.2</ele>
        <time>2014-04-08T12:10:12Z</time>
      </trkpt>
      <trkpt lat="44.4241" lon="4.08845">
        <ele>223.01</ele>
        <time>2014-04-08T12:10:29Z</time>
      </trkpt>
      <trkpt lat="44.42426" lon="4.08831">
        <ele>228.22</ele>
        <time>2014-04-08T12:10:45Z</time>
      </trkpt>
      <trkpt lat="44.42443" lon="4.08821">
        <ele>230.14</ele>
        <time>2014-04-08T12:11:07Z</time>
      </trkpt>
      <trkpt lat="44.42458" lon="4.08806">
        <ele>226.02</ele>
        <time>2014-04-08T12:11:21Z</time>
      </trkpt>
      <trkpt lat="44.42466" lon="4.08783">
        <ele>227.41</ele>
        <time>2014-04-08T12:11:38Z</time>
      </trkpt>
      <trkpt lat="44.4247" lon="4.08759">
        <ele>229.02</ele>
        <time>2014-04-08T12:11:54Z</time>
      </trkpt>
      <trkpt lat="44.42477" lon="4.08735">
        <ele>227.51</ele>
        <time>2014-04-08T12:12:11Z</time>
      </trkpt>
      <trkpt lat="44.42483" lon="4.08711">
        <ele>226.09</ele>
        <time>2014-04-08T12:13:05Z</time>
      </trkpt>
      <trkpt lat="44.42488" lon="4.08685">
        <ele>233.17</ele>
        <time>2014-04-08T12:13:16Z</time>
      </trkpt>
      <trkpt lat="44.42489" lon="4.08659">
        <ele>230.09</ele>
        <time>2014-04-08T12:13:29Z</time>
      </trkpt>
      <trkpt lat="44.42487" lon="4.08633">
        <ele>236.83</ele>
        <time>2014-04-08T12:13:47Z</time>
      </trkpt>
      <trkpt lat="44.42484" lon="4.08607">
        <ele>236.41</ele>
        <time>2014-04-08T12:14:11Z</time>
      </trkpt>
      <trkpt lat="44.42477" lon="4.08583">
        <ele>236.19</ele>
        <time>2014-04-08T12:16:09Z</time>
      </trkpt>
      <trkpt lat="44.42477" lon="4.0861">
        <ele>232.91</ele>
        <time>2014-04-08T12:17:52Z</time>
      </trkpt>
      <trkpt lat="44.42476" lon="4.08636">
        <ele>236.88</ele>
        <time>2014-04-08T12:18:03Z</time>
      </trkpt>
      <trkpt lat="44.42475" lon="4.08662">
        <ele>238.18</ele>
        <time>2014-04-08T12:18:23Z</time>
      </trkpt>
      <trkpt lat="44.42477" lon="4.08687">
        <ele>232.13</ele>
        <time>2014-04-08T12:18:47Z</time>
      </trkpt>
      <trkpt lat="44.42477" lon="4.08713">
        <ele>229.29</ele>
        <time>2014-04-08T12:19:00Z</time>
      </trkpt>
      <trkpt lat="44.42493" lon="4.08701">
        <ele>230.16</ele>
        <time>2014-04-08T12:19:43Z</time>
      </trkpt>
      <trkpt lat="44.42501" lon="4.08679">
        <ele>227.11</ele>
        <time>2014-04-08T12:20:00Z</time>
      </trkpt>
      <trkpt lat="44.4251" lon="4.08656">
        <ele>218.3</ele>
        <time>2014-04-08T12:20:34Z</time>
      </trkpt>
      <trkpt lat="44.42527" lon="4.08647">
        <ele>214.54</ele>
        <time>2014-04-08T12:26:37Z</time>
      </trkpt>
      <trkpt lat="44.42545" lon="4.08639">
        <ele>224.66</ele>
        <time>2014-04-08T12:26:53Z</time>
      </trkpt>
      <trkpt lat="44.42562" lon="4.08628">
        <ele>236.3</ele>
        <time>2014-04-08T12:28:03Z</time>
      </trkpt>
      <trkpt lat="44.42567" lon="4.08603">
        <ele>241.45</ele>
        <time>2014-04-08T12:29:42Z</time>
      </trkpt>
      <trkpt lat="44.42584" lon="4.08591">
        <ele>255.94</ele>
        <time>2014-04-08T12:30:07Z</time>
      </trkpt>
      <trkpt lat="44.426" lon="4.08579">
        <ele>261.59</ele>
        <time>2014-04-08T12:30:36Z</time>
      </trkpt>
      <trkpt lat="44.42598" lon="4.08554">
        <ele>262.81</ele>
        <time>2014-04-08T12:36:28Z</time>
      </trkpt>
      <trkpt lat="44.42591" lon="4.08529">
        <ele>272.83</ele>
        <time>2014-04-08T12:37:02Z</time>
      </trkpt>
      <trkpt lat="44.42574" lon="4.08517">
        <ele>269.87</ele>
        <time>2014-04-08T12:37:20Z</time>
      </trkpt>
      <trkpt lat="44.42563" lon="4.08497">
        <ele>265.74</ele>
        <time>2014-04-08T12:37:39Z</time>
      </trkpt>
      <trkpt lat="44.42553" lon="4.08474">
        <ele>259.01</ele>
        <time>2014-04-08T12:38:01Z</time>
      </trkpt>
      <trkpt lat="44.4254" lon="4.08456">
        <ele>255.86</ele>
        <time>2014-04-08T12:38:17Z</time>
      </trkpt>
      <trkpt lat="44.42527" lon="4.08438">
        <ele>252.96</ele>
        <time>2014-04-08T12:38:34Z</time>
      </trkpt>
      <trkpt lat="44.42519" lon="4.08415">
        <ele>256.22</ele>
        <time>2014-04-08T12:39:07Z</time>
      </trkpt>
      <trkpt lat="44.42508" lon="4.08394">
        <ele>262.27</ele>
        <time>2014-04-08T12:39:20Z</time>
      </trkpt>
      <trkpt lat="44.42491" lon="4.08381">
        <ele>261.85</ele>
        <time>2014-04-08T12:39:32Z</time>
      </trkpt>
      <trkpt lat="44.42495" lon="4.08354">
        <ele>262.75</ele>
        <time>2014-04-08T12:41:53Z</time>
      </trkpt>
      <trkpt lat="44.42502" lon="4.08329">
        <ele>272.7</ele>
        <time>2014-04-08T12:42:33Z</time>
      </trkpt>
      <trkpt lat="44.42505" lon="4.08304">
        <ele>277.07</ele>
        <time>2014-04-08T12:42:48Z</time>
      </trkpt>
      <trkpt lat="44.42512" lon="4.08281">
        <ele>275.41</ele>
        <time>2014-04-08T12:43:26Z</time>
      </trkpt>
      <trkpt lat="44.42526" lon="4.08265">
        <ele>277.69</ele>
        <time>2014-04-08T12:44:01Z</time>
      </trkpt>
      <trkpt lat="44.42528" lon="4.08238">
        <ele>286.41</ele>
        <time>2014-04-08T12:44:48Z</time>
      </trkpt>
      <trkpt lat="44.42543" lon="4.08222">
        <ele>289.84</ele>
        <time>2014-04-08T12:45:13Z</time>
      </trkpt>
      <trkpt lat="44.42559" lon="4.08209">
        <ele>304.21</ele>
        <time>2014-04-08T12:45:59Z</time>
      </trkpt>
      <trkpt lat="44.42577" lon="4.08206">
        <ele>300.44</ele>
        <time>2014-04-08T12:46:50Z</time>
      </trkpt>
      <trkpt lat="44.42589" lon="4.08224">
        <ele>303.06</ele>
        <time>2014-04-08T12:47:13Z</time>
      </trkpt>
      <trkpt lat="44.42607" lon="4.08217">
        <ele>310.67</ele>
        <time>2014-04-08T12:48:31Z</time>
      </trkpt>
      <trkpt lat="44.42621" lon="4.082">
        <ele>308.68</ele>
        <time>2014-04-08T12:50:46Z</time>
      </trkpt>
      <trkpt lat="44.42628" lon="4.08176">
        <ele>309.31</ele>
        <time>2014-04-08T12:51:33Z</time>
      </trkpt>
      <trkpt lat="44.42629" lon="4.0815">
        <ele>314.59</ele>
        <time>2014-04-08T12:51:59Z</time>
      </trkpt>
      <trkpt lat="44.42628" lon="4.08125">
        <ele>316.62</ele>
        <time>2014-04-08T12:52:27Z</time>
      </trkpt>
      <trkpt lat="44.42624" lon="4.081">
        <ele>321.39</ele>
        <time>2014-04-08T12:52:51Z</time>
      </trkpt>
      <trkpt lat="44.42627" lon="4.08074">
        <ele>318.61</ele>
        <time>2014-04-08T12:53:14Z</time>
      </trkpt>
      <trkpt lat="44.42628" lon="4.08048">
        <ele>319.57</ele>
        <time>2014-04-08T12:53:32Z</time>
      </trkpt>
      <trkpt lat="44.42627" lon="4.08022">
        <ele>321.93</ele>
        <time>2014-04-08T12:53:50Z</time>
      </trkpt>
      <trkpt lat="44.42642" lon="4.08009">
        <ele>325.74</ele>
        <time>2014-04-08T12:54:28Z</time>
      </trkpt>
      <trkpt lat="44.4266" lon="4.08005">
        <ele>329.93</ele>
        <time>2014-04-08T12:54:54Z</time>
      </trkpt>
      <trkpt lat="44.42678" lon="4.08011">
        <ele>329.25</ele>
        <time>2014-04-08T12:55:12Z</time>
      </trkpt>
      <trkpt lat="44.42696" lon="4.0801">
        <ele>333.17</ele>
        <time>2014-04-08T12:55:49Z</time>
      </trkpt>
      <trkpt lat="44.42699" lon="4.07985">
        <ele>333.85</ele>
        <time>2014-04-08T12:56:08Z</time>
      </trkpt>
      <trkpt lat="44.42698" lon="4.07958">
        <ele>333.7</ele>
        <time>2014-04-08T12:56:24Z</time>
      </trkpt>
      <trkpt lat="44.42696" lon="4.07933">
        <ele>332.56</ele>
        <time>2014-04-08T12:56:40Z</time>
      </trkpt>
      <trkpt lat="44.42693" lon="4.07907">
        <ele>330.01</ele>
        <time>2014-04-08T12:57:00Z</time>
      </trkpt>
      <trkpt lat="44.42677" lon="4.07894">
        <ele>331.84</ele>
        <time>2014-04-08T12:58:10Z</time>
      </trkpt>
      <trkpt lat="44.4266" lon="4.07888">
        <ele>326.05</ele>
        <time>2014-04-08T12:59:00Z</time>
      </trkpt>
      <trkpt lat="44.42656" lon="4.07864">
        <ele>332.52</ele>
        <time>2014-04-08T12:59:31Z</time>
      </trkpt>
      <trkpt lat="44.42641" lon="4.0785">
        <ele>337.63</ele>
        <time>2014-04-08T13:00:01Z</time>
      </trkpt>
      <trkpt lat="44.42632" lon="4.07827">
        <ele>331.53</ele>
        <time>2014-04-08T13:00:28Z</time>
      </trkpt>
      <trkpt lat="44.42618" lon="4.07812">
        <ele>333.64</ele>
        <time>2014-04-08T13:01:23Z</time>
      </trkpt>
      <trkpt lat="44.42607" lon="4.07791">
        <ele>349.44</ele>
        <time>2014-04-08T13:02:32Z</time>
      </trkpt>
      <trkpt lat="44.42607" lon="4.07766">
        <ele>363.51</ele>
        <time>2014-04-08T13:03:25Z</time>
      </trkpt>
      <trkpt lat="44.42603" lon="4.07741">
        <ele>365.56</ele>
        <time>2014-04-08T13:04:29Z</time>
      </trkpt>
      <trkpt lat="44.42601" lon="4.07715">
        <ele>369.85</ele>
        <time>2014-04-08T13:04:51Z</time>
      </trkpt>
      <trkpt lat="44.42598" lon="4.07691">
        <ele>367.24</ele>
        <time>2014-04-08T13:11:36Z</time>
      </trkpt>
      <trkpt lat="44.42584" lon="4.07675">
        <ele>372.57</ele>
        <time>2014-04-08T13:13:10Z</time>
      </trkpt>
      <trkpt lat="44.42589" lon="4.0765">
        <ele>378.61</ele>
        <time>2014-04-08T13:14:51Z</time>
      </trkpt>
      <trkpt lat="44.42577" lon="4.07669">
        <ele>373.15</ele>
        <time>2014-04-08T13:17:17Z</time>
      </trkpt>
      <trkpt lat="44.42559" lon="4.07677">
        <ele>370.46</ele>
        <time>2014-04-08T13:18:11Z</time>
      </trkpt>
      <trkpt lat="44.42541" lon="4.07673">
        <ele>368.5</ele>
        <time>2014-04-08T13:19:18Z</time>
      </trkpt>
      <trkpt lat="44.42547" lon="4.07649">
        <ele>374.91</ele>
        <time>2014-04-08T13:20:21Z</time>
      </trkpt>
      <trkpt lat="44.42534" lon="4.07631">
        <ele>377.85</ele>
        <time>2014-04-08T13:21:05Z</time>
      </trkpt>
      <trkpt lat="44.42528" lon="4.07606">
        <ele>380.74</ele>
        <time>2014-04-08T13:22:23Z</time>
      </trkpt>
      <trkpt lat="44.42518" lon="4.07584">
        <ele>379.78</ele>
        <time>2014-04-08T13:22:42Z</time>
      </trkpt>
      <trkpt lat="44.42508" lon="4.07562">
        <ele>387.22</ele>
        <time>2014-04-08T13:23:03Z</time>
      </trkpt>
      <trkpt lat="44.42504" lon="4.07537">
        <ele>391.46</ele>
        <time>2014-04-08T13:23:38Z</time>
      </trkpt>
      <trkpt lat="44.42488" lon="4.07522">
        <ele>401.09</ele>
        <time>2014-04-08T13:24:27Z</time>
      </trkpt>
      <trkpt lat="44.42501" lon="4.07504">
        <ele>399.52</ele>
        <time>2014-04-08T13:25:21Z</time>
      </trkpt>
      <trkpt lat="44.42509" lon="4.0748">
        <ele>401.36</ele>
        <time>2014-04-08T13:25:44Z</time>
      </trkpt>
      <trkpt lat="44.42522" lon="4.07462">
        <ele>402.27</ele>
        <time>2014-04-08T13:25:58Z</time>
      </trkpt>
      <trkpt lat="44.42527" lon="4.07438">
        <ele>403.31</ele>
        <time>2014-04-08T13:26:23Z</time>
      </trkpt>
      <trkpt lat="44.4253" lon="4.07413">
        <ele>402.18</ele>
        <time>2014-04-08T13:26:46Z</time>
      </trkpt>
      <trkpt lat="44.42542" lon="4.07392">
        <ele>402.38</ele>
        <time>2014-04-08T13:27:13Z</time>
      </trkpt>
      <trkpt lat="44.42549" lon="4.07368">
        <ele>403.44</ele>
        <time>2014-04-08T13:27:37Z</time>
      </trkpt>
      <trkpt lat="44.4256" lon="4.07348">
        <ele>409.13</ele>
        <time>2014-04-08T13:27:55Z</time>
      </trkpt>
      <trkpt lat="44.42544" lon="4.07333">
        <ele>414.69</ele>
        <time>2014-04-08T13:29:25Z</time>
      </trkpt>
      <trkpt lat="44.42526" lon="4.0733">
        <ele>422.57</ele>
        <time>2014-04-08T13:29:44Z</time>
      </trkpt>
      <trkpt lat="44.42507" lon="4.07328">
        <ele>424.16</ele>
        <time>2014-04-08T13:30:31Z</time>
      </trkpt>
      <trkpt lat="44.42488" lon="4.07326">
        <ele>426.69</ele>
        <time>2014-04-08T13:31:13Z</time>
      </trkpt>
      <trkpt lat="44.42472" lon="4.07339">
        <ele>425.67</ele>
        <time>2014-04-08T13:31:58Z</time>
      </trkpt>
      <trkpt lat="44.42459" lon="4.07359">
        <ele>431.01</ele>
        <time>2014-04-08T13:34:54Z</time>
      </trkpt>
      <trkpt lat="44.42441" lon="4.07355">
        <ele>433.03</ele>
        <time>2014-04-08T13:35:18Z</time>
      </trkpt>
      <trkpt lat="44.42423" lon="4.07348">
        <ele>435.84</ele>
        <time>2014-04-08T13:36:10Z</time>
      </trkpt>
      <trkpt lat="44.42406" lon="4.07339">
        <ele>433.21</ele>
        <time>2014-04-08T13:36:39Z</time>
      </trkpt>
      <trkpt lat="44.42388" lon="4.07341">
        <ele>443.25</ele>
        <time>2014-04-08T13:38:14Z</time>
      </trkpt>
      <trkpt lat="44.42371" lon="4.07332">
        <ele>451.19</ele>
        <time>2014-04-08T13:39:09Z</time>
      </trkpt>
      <trkpt lat="44.42353" lon="4.07342">
        <ele>453.58</ele>
        <time>2014-04-08T13:41:00Z</time>
      </trkpt>
      <trkpt lat="44.42338" lon="4.07356">
        <ele>463.54</ele>
        <time>2014-04-08T13:41:36Z</time>
      </trkpt>
      <trkpt lat="44.42323" lon="4.07371">
        <ele>462.76</ele>
        <time>2014-04-08T13:41:59Z</time>
      </trkpt>
      <trkpt lat="44.42307" lon="4.07384">
        <ele>463.25</ele>
        <time>2014-04-08T13:42:26Z</time>
      </trkpt>
      <trkpt lat="44.42289" lon="4.07392">
        <ele>465.26</ele>
        <time>2014-04-08T13:42:50Z</time>
      </trkpt>
      <trkpt lat="44.42271" lon="4.07394">
        <ele>463.64</ele>
        <time>2014-04-08T13:43:20Z</time>
      </trkpt>
      <trkpt lat="44.42254" lon="4.07385">
        <ele>465.23</ele>
        <time>2014-04-08T13:43:44Z</time>
      </trkpt>
      <trkpt lat="44.42236" lon="4.07377">
        <ele>470.77</ele>
        <time>2014-04-08T13:44:07Z</time>
      </trkpt>
      <trkpt lat="44.42218" lon="4.07368">
        <ele>469.8</ele>
        <time>2014-04-08T13:44:32Z</time>
      </trkpt>
      <trkpt lat="44.422" lon="4.07363">
        <ele>474.22</ele>
        <time>2014-04-08T13:44:51Z</time>
      </trkpt>
      <trkpt lat="44.42184" lon="4.07351">
        <ele>475.89</ele>
        <time>2014-04-08T13:45:09Z</time>
      </trkpt>
      <trkpt lat="44.42166" lon="4.07346">
        <ele>480.3</ele>
        <time>2014-04-08T13:49:39Z</time>
      </trkpt>
      <trkpt lat="44.42171" lon="4.07371">
        <ele>479.18</ele>
        <time>2014-04-08T13:53:18Z</time>
      </trkpt>
      <trkpt lat="44.42187" lon="4.07385">
        <ele>470.29</ele>
        <time>2014-04-08T13:53:45Z</time>
      </trkpt>
      <trkpt lat="44.42183" lon="4.0741">
        <ele>465.65</ele>
        <time>2014-04-08T13:54:12Z</time>
      </trkpt>
      <trkpt lat="44.42182" lon="4.07435">
        <ele>460.81</ele>
        <time>2014-04-08T13:54:40Z</time>
      </trkpt>
      <trkpt lat="44.4217" lon="4.07455">
        <ele>460.96</ele>
        <time>2014-04-08T13:55:03Z</time>
      </trkpt>
      <trkpt lat="44.42164" lon="4.07479">
        <ele>456.74</ele>
        <time>2014-04-08T13:55:40Z</time>
      </trkpt>
      <trkpt lat="44.42158" lon="4.07504">
        <ele>448.72</ele>
        <time>2014-04-08T13:56:06Z</time>
      </trkpt>
      <trkpt lat="44.42151" lon="4.07527">
        <ele>445.74</ele>
        <time>2014-04-08T13:56:27Z</time>
      </trkpt>
      <trkpt lat="44.42146" lon="4.07553">
        <ele>445.06</ele>
        <time>2014-04-08T13:56:54Z</time>
      </trkpt>
      <trkpt lat="44.4214" lon="4.07576">
        <ele>443.06</ele>
        <time>2014-04-08T13:57:21Z</time>
      </trkpt>
      <trkpt lat="44.42146" lon="4.07601">
        <ele>436.69</ele>
        <time>2014-04-08T13:57:57Z</time>
      </trkpt>
      <trkpt lat="44.42151" lon="4.07625">
        <ele>433.6</ele>
        <time>2014-04-08T13:58:26Z</time>
      </trkpt>
      <trkpt lat="44.42154" lon="4.07651">
        <ele>430.12</ele>
        <time>2014-04-08T13:58:48Z</time>
      </trkpt>
      <trkpt lat="44.42157" lon="4.07676">
        <ele>428.81</ele>
        <time>2014-04-08T13:59:15Z</time>
      </trkpt>
      <trkpt lat="44.42161" lon="4.07701">
        <ele>420.25</ele>
        <time>2014-04-08T13:59:37Z</time>
      </trkpt>
      <trkpt lat="44.42168" lon="4.07724">
        <ele>415.2</ele>
        <time>2014-04-08T14:00:06Z</time>
      </trkpt>
      <trkpt lat="44.42176" lon="4.07748">
        <ele>409.96</ele>
        <time>2014-04-08T14:00:34Z</time>
      </trkpt>
      <trkpt lat="44.42179" lon="4.07774">
        <ele>410.47</ele>
        <time>2014-04-08T14:00:53Z</time>
      </trkpt>
      <trkpt lat="44.42188" lon="4.07796">
        <ele>401.84</ele>
        <time>2014-04-08T14:01:19Z</time>
      </trkpt>
      <trkpt lat="44.42196" lon="4.0782">
        <ele>400.29</ele>
        <time>2014-04-08T14:01:44Z</time>
      </trkpt>
      <trkpt lat="44.42196" lon="4.07845">
        <ele>397.19</ele>
        <time>2014-04-08T14:09:21Z</time>
      </trkpt>
      <trkpt lat="44.42207" lon="4.07865">
        <ele>391.51</ele>
        <time>2014-04-08T14:09:49Z</time>
      </trkpt>
      <trkpt lat="44.42207" lon="4.07891">
        <ele>394.1</ele>
        <time>2014-04-08T14:10:16Z</time>
      </trkpt>
      <trkpt lat="44.42207" lon="4.07917">
        <ele>391.79</ele>
        <time>2014-04-08T14:10:34Z</time>
      </trkpt>
      <trkpt lat="44.42203" lon="4.07942">
        <ele>384.14</ele>
        <time>2014-04-08T14:11:00Z</time>
      </trkpt>
      <trkpt lat="44.42191" lon="4.07961">
        <ele>378.37</ele>
        <time>2014-04-08T14:11:24Z</time>
      </trkpt>
      <trkpt lat="44.42189" lon="4.07987">
        <ele>373.42</ele>
        <time>2014-04-08T14:11:51Z</time>
      </trkpt>
      <trkpt lat="44.42189" lon="4.08013">
        <ele>376.5</ele>
        <time>2014-04-08T14:12:18Z</time>
      </trkpt>
      <trkpt lat="44.42192" lon="4.08037">
        <ele>373.79</ele>
        <time>2014-04-08T14:12:52Z</time>
      </trkpt>
      <trkpt lat="44.42198" lon="4.08061">
        <ele>370.42</ele>
        <time>2014-04-08T14:13:42Z</time>
      </trkpt>
      <trkpt lat="44.42198" lon="4.08087">
        <ele>373.51</ele>
        <time>2014-04-08T14:14:53Z</time>
      </trkpt>
      <trkpt lat="44.42196" lon="4.08113">
        <ele>373.34</ele>
        <time>2014-04-08T14:15:08Z</time>
      </trkpt>
      <trkpt lat="44.42192" lon="4.08138">
        <ele>369.55</ele>
        <time>2014-04-08T14:15:27Z</time>
      </trkpt>
      <trkpt lat="44.42193" lon="4.08163">
        <ele>371.13</ele>
        <time>2014-04-08T14:15:45Z</time>
      </trkpt>
      <trkpt lat="44.42191" lon="4.08189">
        <ele>371.5</ele>
        <time>2014-04-08T14:16:02Z</time>
      </trkpt>
      <trkpt lat="44.42191" lon="4.08216">
        <ele>363.82</ele>
        <time>2014-04-08T14:16:22Z</time>
      </trkpt>
      <trkpt lat="44.422" lon="4.08238">
        <ele>362.91</ele>
        <time>2014-04-08T14:16:36Z</time>
      </trkpt>
      <trkpt lat="44.42204" lon="4.08263">
        <ele>361.06</ele>
        <time>2014-04-08T14:16:56Z</time>
      </trkpt>
      <trkpt lat="44.4219" lon="4.08283">
        <ele>355.97</ele>
        <time>2014-04-08T14:17:14Z</time>
      </trkpt>
      <trkpt lat="44.42176" lon="4.083">
        <ele>358.67</ele>
        <time>2014-04-08T14:18:00Z</time>
      </trkpt>
      <trkpt lat="44.42166" lon="4.08321">
        <ele>350.95</ele>
        <time>2014-04-08T14:18:16Z</time>
      </trkpt>
      <trkpt lat="44.42162" lon="4.08346">
        <ele>343.63</ele>
        <time>2014-04-08T14:18:35Z</time>
      </trkpt>
      <trkpt lat="44.42157" lon="4.08372">
        <ele>343.19</ele>
        <time>2014-04-08T14:18:54Z</time>
      </trkpt>
      <trkpt lat="44.4216" lon="4.08397">
        <ele>339.27</ele>
        <time>2014-04-08T14:19:16Z</time>
      </trkpt>
      <trkpt lat="44.42163" lon="4.08422">
        <ele>339.9</ele>
        <time>2014-04-08T14:19:33Z</time>
      </trkpt>
      <trkpt lat="44.42162" lon="4.08448">
        <ele>344.96</ele>
        <time>2014-04-08T14:19:57Z</time>
      </trkpt>
      <trkpt lat="44.42159" lon="4.08473">
        <ele>339.68</ele>
        <time>2014-04-08T14:20:24Z</time>
      </trkpt>
      <trkpt lat="44.42152" lon="4.08497">
        <ele>338.33</ele>
        <time>2014-04-08T14:20:58Z</time>
      </trkpt>
      <trkpt lat="44.42156" lon="4.08522">
        <ele>343.19</ele>
        <time>2014-04-08T14:24:05Z</time>
      </trkpt>
      <trkpt lat="44.42151" lon="4.08547">
        <ele>341.08</ele>
        <time>2014-04-08T14:24:30Z</time>
      </trkpt>
      <trkpt lat="44.42144" lon="4.08571">
        <ele>331.56</ele>
        <time>2014-04-08T14:24:54Z</time>
      </trkpt>
      <trkpt lat="44.42146" lon="4.08596">
        <ele>325.64</ele>
        <time>2014-04-08T14:25:12Z</time>
      </trkpt>
      <trkpt lat="44.42144" lon="4.08623">
        <ele>319.94</ele>
        <time>2014-04-08T14:25:34Z</time>
      </trkpt>
      <trkpt lat="44.42138" lon="4.08646">
        <ele>311.77</ele>
        <time>2014-04-08T14:26:01Z</time>
      </trkpt>
      <trkpt lat="44.42142" lon="4.08671">
        <ele>309.61</ele>
        <time>2014-04-08T14:26:22Z</time>
      </trkpt>
      <trkpt lat="44.42145" lon="4.08697">
        <ele>300.06</ele>
        <time>2014-04-08T14:26:52Z</time>
      </trkpt>
      <trkpt lat="44.42145" lon="4.08722">
        <ele>301.03</ele>
        <time>2014-04-08T14:27:31Z</time>
      </trkpt>
      <trkpt lat="44.42146" lon="4.08747">
        <ele>300.29</ele>
        <time>2014-04-08T14:27:46Z</time>
      </trkpt>
      <trkpt lat="44.42141" lon="4.08772">
        <ele>300.36</ele>
        <time>2014-04-08T14:28:05Z</time>
      </trkpt>
      <trkpt lat="44.42146" lon="4.08799">
        <ele>294.19</ele>
        <time>2014-04-08T14:28:40Z</time>
      </trkpt>
      <trkpt lat="44.42145" lon="4.08825">
        <ele>283.52</ele>
        <time>2014-04-08T14:29:00Z</time>
      </trkpt>
      <trkpt lat="44.4216" lon="4.0884">
        <ele>278.55</ele>
        <time>2014-04-08T14:29:19Z</time>
      </trkpt>
      <trkpt lat="44.42165" lon="4.08864">
        <ele>273.1</ele>
        <time>2014-04-08T14:29:37Z</time>
      </trkpt>
      <trkpt lat="44.42171" lon="4.08889">
        <ele>266.01</ele>
        <time>2014-04-08T14:30:05Z</time>
      </trkpt>
      <trkpt lat="44.42181" lon="4.0891">
        <ele>252.83</ele>
        <time>2014-04-08T14:30:45Z</time>
      </trkpt>
      <trkpt lat="44.42191" lon="4.08931">
        <ele>248.94</ele>
        <time>2014-04-08T14:31:16Z</time>
      </trkpt>
      <trkpt lat="44.42209" lon="4.08922">
        <ele>244</ele>
        <time>2014-04-08T14:31:35Z</time>
      </trkpt>
      <trkpt lat="44.42227" lon="4.08919">
        <ele>241.04</ele>
        <time>2014-04-08T14:33:19Z</time>
      </trkpt>
      <trkpt lat="44.42245" lon="4.08911">
        <ele>233.91</ele>
        <time>2014-04-08T14:33:43Z</time>
      </trkpt>
      <trkpt lat="44.42241" lon="4.08935">
        <ele>233.21</ele>
        <time>2014-04-08T14:41:20Z</time>
      </trkpt>
      <trkpt lat="44.42237" lon="4.0896">
        <ele>233</ele>
        <time>2014-04-08T14:41:36Z</time>
      </trkpt>
      <trkpt lat="44.4223" lon="4.08985">
        <ele>229.1</ele>
        <time>2014-04-08T14:41:54Z</time>
      </trkpt>
      <trkpt lat="44.42226" lon="4.0901">
        <ele>225.82</ele>
        <time>2014-04-08T14:42:10Z</time>
      </trkpt>
      <trkpt lat="44.4222" lon="4.09034">
        <ele>222.01</ele>
        <time>2014-04-08T14:42:25Z</time>
      </trkpt>
      <trkpt lat="44.42212" lon="4.09057">
        <ele>219.57</ele>
        <time>2014-04-08T14:42:40Z</time>
      </trkpt>
      <trkpt lat="44.42203" lon="4.09079">
        <ele>220.89</ele>
        <time>2014-04-08T14:42:55Z</time>
      </trkpt>
      <trkpt lat="44.4219" lon="4.09099">
        <ele>218.98</ele>
        <time>2014-04-08T14:43:11Z</time>
      </trkpt>
      <trkpt lat="44.42178" lon="4.09118">
        <ele>217.74</ele>
        <time>2014-04-08T14:43:26Z</time>
      </trkpt>
      <trkpt lat="44.42169" lon="4.0914">
        <ele>216.82</ele>
        <time>2014-04-08T14:43:40Z</time>
      </trkpt>
      <trkpt lat="44.4216" lon="4.09163">
        <ele>213.69</ele>
        <time>2014-04-08T14:43:55Z</time>
      </trkpt>
      <trkpt lat="44.42158" lon="4.09188">
        <ele>217.46</ele>
        <time>2014-04-08T14:44:57Z</time>
      </trkpt>
      <trkpt lat="44.4214" lon="4.09179">
        <ele>212.54</ele>
        <time>2014-04-08T14:45:42Z</time>
      </trkpt>
      <trkpt lat="44.42127" lon="4.0916">
        <ele>213.38</ele>
        <time>2014-04-08T14:45:55Z</time>
      </trkpt>
    </trkseg>
  </trk>
</gpx>